首页
METAR-TAF:

METAR-TAF

机场 :

廊曼国际机场

曼谷, 泰国

纬度: 13-54-45N, 经度: 100-36-24E, 海拔: 4米

当前天气观测

该预报发布于34分钟前的01:30 UTC
静风
温度 30°C
湿度 84%
气压 1009 hPa
能见度10公里或以上
少量云层高于2000英尺
多云层高于10000英尺

METAR: VTBD 260130Z 00000KT 9999 FEW020 BKN100 30/27 Q1009 NOSIG

时间: 09:04 (02:04 UTC)

预报

该预报发布于3小时和4分钟前的23:00 UTC
预报有效从26日的 00点(UTC)到 27日的 06点(UTC)
风速5节,风向东转东北
能见度10公里或以上
少量云层高于2000英尺
成为
从 26日的 03点(UTC)到 26日的 05点(UTC)
风速8节,风向
短暂存在
从 26日的 07点(UTC)到 26日的 10点(UTC)
风速15节,风向多变
能見度: 6000
少量云层高于1800英尺, 积雨云.
散云层高于3000英尺
雷暴, 小雨
成为
从 26日的 20点(UTC)到 26日的 22点(UTC)
风速5节,风向东转东南
成为
从 27日的 02点(UTC)到 27日的 04点(UTC)
风速8节,风向

TAF: VTBD 252300Z 2600/2706 06005KT 9999 FEW020 BECMG 2603/2605 19008KT TEMPO 2607/2610 VRB15KT 6000 -TSRA FEW018CB SCT030 BECMG 2620/2622 12005KT BECMG 2702/2704 19008KT

超过4000个机场的气象观测和天气预报(METAR&TAF报告)。

可查询的气象台以黄色和红色小点在地图上表示。

将鼠标移到小点上方,可查看气象台名称。

然后点击查看天气观测和预报。

如需切换地图:点击带黑十字的绿色按钮放大地图;点击带横线的绿色按钮缩小地图;或者点击绿色箭头查看邻近地区的地图。


METAR-TAF: